createdAt,value
2022-09-26T00:01:13.817Z,9.65
2022-09-26T00:03:43.779Z,8.68
2022-09-26T00:06:11.160Z,8.63
2022-09-26T00:08:38.413Z,9.57
2022-09-26T00:11:07.916Z,6.55
2022-09-26T00:13:37.347Z,6.68
2022-09-26T00:16:05.439Z,8.35
2022-09-26T00:18:32.771Z,8.02
2022-09-26T00:21:04.822Z,9.37
2022-09-26T00:23:32.250Z,8.82
2022-09-26T00:25:59.685Z,7.35
2022-09-26T00:28:27.947Z,9.63
2022-09-26T00:30:55.827Z,12.07
2022-09-26T00:33:24.117Z,12.67
2022-09-26T00:35:55.319Z,6.95
2022-09-26T00:38:22.926Z,9.98
2022-09-26T00:40:50.755Z,7.78
2022-09-26T00:43:37.845Z,9.48
2022-09-26T00:46:32.760Z,7.73
2022-09-26T00:49:17.264Z,7.72
2022-09-26T00:51:49.578Z,6.90
2022-09-26T00:54:18.665Z,7.18
2022-09-26T00:56:49.026Z,7.20
2022-09-26T00:59:28.426Z,6.80
2022-09-26T01:01:57.956Z,7.95
2022-09-26T01:04:28.335Z,7.15
2022-09-26T01:06:58.093Z,8.95
2022-09-26T01:09:25.924Z,9.35
2022-09-26T01:11:53.749Z,6.00
2022-09-26T01:14:21.549Z,7.90
2022-09-26T01:16:53.945Z,10.60
2022-09-26T01:19:41.326Z,7.03
2022-09-26T01:22:14.037Z,9.88
2022-09-26T01:25:03.016Z,8.53
2022-09-26T01:28:04.645Z,10.13
2022-09-26T01:30:51.533Z,10.50
2022-09-26T01:33:46.548Z,7.38
2022-09-26T01:36:13.845Z,10.43
2022-09-26T01:39:09.250Z,10.73
2022-09-26T01:42:15.440Z,10.27
2022-09-26T01:45:19.744Z,9.70
2022-09-26T01:48:10.662Z,10.48
2022-09-26T01:50:48.102Z,8.48
2022-09-26T01:53:20.550Z,8.47
2022-09-26T01:55:56.453Z,13.45
2022-09-26T01:58:37.948Z,8.70
2022-09-26T02:01:10.503Z,12.15
2022-09-26T02:03:44.857Z,11.43
2022-09-26T02:06:18.652Z,10.40
2022-09-26T02:08:59.690Z,7.80
2022-09-26T02:11:27.387Z,9.18
2022-09-26T02:14:03.831Z,7.63
2022-09-26T02:16:47.580Z,10.27
2022-09-26T02:19:31.744Z,9.07
2022-09-26T02:22:01.425Z,10.77
2022-09-26T02:24:29.059Z,8.15
2022-09-26T02:26:56.812Z,9.70
2022-09-26T02:29:23.837Z,10.05
2022-09-26T02:32:00.840Z,12.73
2022-09-26T02:34:29.257Z,9.75
2022-09-26T02:36:57.741Z,12.80
2022-09-26T02:39:28.340Z,9.98
2022-09-26T02:42:23.670Z,10.13
2022-09-26T02:45:33.162Z,10.07
2022-09-26T02:48:03.308Z,7.75
2022-09-26T02:50:52.396Z,9.25
2022-09-26T02:53:54.767Z,8.82
2022-09-26T02:56:49.193Z,9.90
2022-09-26T02:59:22.486Z,10.50
2022-09-26T03:01:56.522Z,9.40
2022-09-26T03:04:43.963Z,9.55
2022-09-26T03:07:20.519Z,10.70
2022-09-26T03:09:49.156Z,13.43
2022-09-26T03:12:16.801Z,12.07
2022-09-26T03:14:46.796Z,12.35
2022-09-26T03:17:18.577Z,13.35
2022-09-26T03:20:05.571Z,8.98
2022-09-26T03:22:36.561Z,13.80
2022-09-26T03:25:04.303Z,8.83
2022-09-26T03:27:33.097Z,8.23
2022-09-26T03:30:00.496Z,8.98
2022-09-26T03:32:28.862Z,7.72
2022-09-26T03:34:57.491Z,11.65
2022-09-26T03:37:24.753Z,12.50
2022-09-26T03:39:52.199Z,12.15
2022-09-26T03:42:28.149Z,6.80
2022-09-26T03:44:55.941Z,8.35
2022-09-26T03:47:29.180Z,12.23
2022-09-26T03:49:56.188Z,9.57
2022-09-26T03:52:24.889Z,8.40
2022-09-26T03:54:53.381Z,8.20
2022-09-26T03:57:21.081Z,10.98
2022-09-26T03:59:55.350Z,10.07
2022-09-26T04:02:23.094Z,11.80
2022-09-26T04:05:01.937Z,9.73
2022-09-26T04:07:29.175Z,9.13
2022-09-26T04:09:57.442Z,8.75
2022-09-26T04:12:24.762Z,8.38
2022-09-26T04:14:52.880Z,9.33
2022-09-26T04:17:20.399Z,10.73
2022-09-26T04:19:47.861Z,11.60
2022-09-26T04:22:15.361Z,10.35
2022-09-26T04:24:44.538Z,10.77
2022-09-26T04:27:13.655Z,8.63
2022-09-26T04:29:46.121Z,7.97
2022-09-26T04:32:48.333Z,8.15
2022-09-26T04:35:34.301Z,10.75
2022-09-26T04:38:01.630Z,15.05
2022-09-26T04:40:29.342Z,10.53
2022-09-26T04:43:02.683Z,5.57
2022-09-26T04:45:29.949Z,11.35
2022-09-26T04:47:57.659Z,5.57
2022-09-26T04:50:24.880Z,7.70
2022-09-26T04:53:09.954Z,7.97
2022-09-26T04:55:46.615Z,7.80
2022-09-26T04:58:15.853Z,4.97
2022-09-26T05:00:47.407Z,8.57
2022-09-26T05:03:18.112Z,9.38
2022-09-26T05:05:47.436Z,10.80
2022-09-26T05:08:15.019Z,9.77
2022-09-26T05:10:42.684Z,7.07
2022-09-26T05:13:10.441Z,13.18
2022-09-26T05:15:39.970Z,10.85
2022-09-26T05:18:08.690Z,8.57
2022-09-26T05:20:37.100Z,9.38
2022-09-26T05:23:09.202Z,12.88
2022-09-26T05:25:58.178Z,10.23
2022-09-26T05:28:27.244Z,8.57
2022-09-26T05:30:54.898Z,7.63
2022-09-26T05:33:22.601Z,8.55
2022-09-26T05:35:55.957Z,7.65
2022-09-26T05:38:23.137Z,7.55
2022-09-26T05:40:56.777Z,7.25
2022-09-26T05:43:27.387Z,8.13
2022-09-26T05:46:15.481Z,11.32
2022-09-26T05:48:48.008Z,7.30
2022-09-26T05:51:21.976Z,10.02
2022-09-26T05:53:49.691Z,8.25
2022-09-26T05:56:20.500Z,4.87
2022-09-26T05:59:08.198Z,8.75
2022-09-26T06:01:35.548Z,6.30
2022-09-26T06:04:15.397Z,6.68
2022-09-26T06:07:01.148Z,9.50
2022-09-26T06:09:28.791Z,9.33
2022-09-26T06:12:12.011Z,5.80
2022-09-26T06:14:38.961Z,12.43
2022-09-26T06:17:06.157Z,9.85
2022-09-26T06:19:33.370Z,9.23
2022-09-26T06:22:00.550Z,8.87
2022-09-26T06:24:29.323Z,8.98
2022-09-26T06:26:59.588Z,8.10
2022-09-26T06:29:26.873Z,6.90
2022-09-26T06:31:54.278Z,5.30
2022-09-26T06:34:40.132Z,7.97
2022-09-26T06:37:26.069Z,7.80
2022-09-26T06:39:59.063Z,7.18
2022-09-26T06:42:26.666Z,6.25
2022-09-26T06:45:16.429Z,10.57
2022-09-26T06:48:02.637Z,11.00
2022-09-26T06:50:34.868Z,13.95
2022-09-26T06:53:07.033Z,11.45
2022-09-26T06:55:37.955Z,13.00
2022-09-26T06:58:05.158Z,5.57
2022-09-26T07:00:47.215Z,9.87
2022-09-26T07:03:46.626Z,7.78
2022-09-26T07:06:32.767Z,7.50
2022-09-26T07:09:04.649Z,7.38
2022-09-26T07:12:15.995Z,5.00
2022-09-26T07:14:44.078Z,6.57
2022-09-26T07:17:25.565Z,7.80
2022-09-26T07:20:12.962Z,7.57
2022-09-26T07:23:11.400Z,12.00
2022-09-26T07:25:40.582Z,7.72
2022-09-26T07:28:09.808Z,7.67
2022-09-26T07:30:46.605Z,8.57
2022-09-26T07:33:25.649Z,7.53
2022-09-26T07:35:54.189Z,6.15
2022-09-26T07:38:22.575Z,7.72
2022-09-26T07:40:54.359Z,5.57
2022-09-26T07:43:42.514Z,5.13
2022-09-26T07:46:29.087Z,8.27
2022-09-26T07:49:15.735Z,7.00
2022-09-26T07:52:09.440Z,7.93
2022-09-26T07:55:11.953Z,10.50
2022-09-26T07:58:01.073Z,9.15
2022-09-26T08:00:48.578Z,9.68
2022-09-26T08:03:35.489Z,5.72
2022-09-26T08:06:09.065Z,10.85
2022-09-26T08:08:37.309Z,6.90
2022-09-26T08:11:24.074Z,6.07
2022-09-26T08:14:10.152Z,9.05
2022-09-26T08:16:48.401Z,8.18
2022-09-26T08:19:17.595Z,9.80
2022-09-26T08:21:45.314Z,7.47
2022-09-26T08:24:12.548Z,9.30
2022-09-26T08:26:45.549Z,6.20
2022-09-26T08:29:23.587Z,7.32
2022-09-26T08:31:54.876Z,5.57
2022-09-26T08:34:25.361Z,5.60
2022-09-26T08:37:28.927Z,8.35
2022-09-26T08:40:16.551Z,8.27
2022-09-26T08:43:28.431Z,9.90
2022-09-26T08:46:49.979Z,13.60
2022-09-26T08:49:42.402Z,7.33
2022-09-26T08:52:49.912Z,6.22
2022-09-26T08:55:24.067Z,12.68
2022-09-26T08:58:05.304Z,9.55
2022-09-26T09:00:37.574Z,8.10
2022-09-26T09:03:07.620Z,10.83
2022-09-26T09:05:39.033Z,6.57
2022-09-26T09:08:15.434Z,10.32
2022-09-26T09:11:14.689Z,10.27
2022-09-26T09:14:01.924Z,5.57
2022-09-26T09:17:08.897Z,6.07
2022-09-26T09:20:05.978Z,8.73
2022-09-26T09:23:08.590Z,6.88
2022-09-26T09:25:40.281Z,9.55
2022-09-26T09:28:58.946Z,14.30
2022-09-26T09:31:32.841Z,11.93
2022-09-26T09:34:27.262Z,11.25
2022-09-26T09:37:12.695Z,7.75
2022-09-26T09:40:14.936Z,9.73
2022-09-26T09:43:16.239Z,13.60
2022-09-26T09:45:51.593Z,6.47
2022-09-26T09:48:19.068Z,11.88
2022-09-26T09:51:01.178Z,11.52
2022-09-26T09:54:13.552Z,9.07
2022-09-26T09:57:08.941Z,10.95
2022-09-26T09:59:36.778Z,7.37
2022-09-26T10:02:31.958Z,8.60
2022-09-26T10:05:30.673Z,9.60
2022-09-26T10:07:59.365Z,11.05
2022-09-26T10:10:54.935Z,8.27
2022-09-26T10:13:44.609Z,9.53
2022-09-26T10:16:27.072Z,9.60
2022-09-26T10:19:04.117Z,9.35
2022-09-26T10:21:46.063Z,7.68
2022-09-26T10:24:45.324Z,10.15
2022-09-26T10:27:35.271Z,10.00
2022-09-26T10:30:20.391Z,10.73
2022-09-26T10:32:56.550Z,8.60
2022-09-26T10:35:43.939Z,8.02
2022-09-26T10:38:28.701Z,11.80
2022-09-26T10:41:23.368Z,6.40
2022-09-26T10:43:56.374Z,7.65
2022-09-26T10:46:45.407Z,8.40
2022-09-26T10:49:54.490Z,14.50
2022-09-26T10:52:43.394Z,11.38
2022-09-26T10:55:16.013Z,10.43
2022-09-26T10:57:49.022Z,10.30
2022-09-26T11:00:42.360Z,8.10
2022-09-26T11:03:25.987Z,8.15
2022-09-26T11:06:34.714Z,11.60
2022-09-26T11:09:18.298Z,8.77
2022-09-26T11:12:25.644Z,7.80
2022-09-26T11:15:08.329Z,6.13
2022-09-26T11:17:47.352Z,8.10
2022-09-26T11:20:47.449Z,13.68
2022-09-26T11:23:34.112Z,8.70
2022-09-26T11:26:32.206Z,8.32
2022-09-26T11:29:08.214Z,6.68
2022-09-26T11:31:44.143Z,5.53
2022-09-26T11:34:44.008Z,7.18
2022-09-26T11:37:30.893Z,9.50
2022-09-26T11:40:20.076Z,8.57
2022-09-26T11:43:08.620Z,6.90
2022-09-26T11:46:03.408Z,8.82
2022-09-26T11:48:55.060Z,7.93
2022-09-26T11:52:14.499Z,10.87
2022-09-26T11:54:56.954Z,5.90
2022-09-26T11:57:34.031Z,8.27
2022-09-26T12:00:24.476Z,7.32
2022-09-26T12:03:30.415Z,7.13
2022-09-26T12:06:18.861Z,7.90
2022-09-26T12:09:15.759Z,11.05
2022-09-26T12:12:34.848Z,7.95
2022-09-26T12:15:40.916Z,7.95
2022-09-26T12:18:15.310Z,8.38
2022-09-26T12:21:19.629Z,8.07
2022-09-26T12:24:06.215Z,8.55
2022-09-26T12:26:49.650Z,12.00
2022-09-26T12:29:38.440Z,10.93
2022-09-26T12:32:23.845Z,9.77
2022-09-26T12:35:02.442Z,9.90
2022-09-26T12:37:41.448Z,8.43
2022-09-26T12:40:11.227Z,8.70
2022-09-26T12:43:00.493Z,9.63
2022-09-26T12:45:28.204Z,8.60
2022-09-26T12:48:10.725Z,7.90
2022-09-26T12:50:46.451Z,9.50
2022-09-26T12:53:22.181Z,7.05
2022-09-26T12:56:07.128Z,8.07
2022-09-26T12:58:42.394Z,10.50
2022-09-26T13:01:15.231Z,10.37
2022-09-26T13:03:42.703Z,9.05
2022-09-26T13:07:17.293Z,8.98
2022-09-26T13:09:44.236Z,8.85
2022-09-26T13:12:20.170Z,8.00
2022-09-26T13:15:07.993Z,8.93
2022-09-26T13:17:42.083Z,8.43
2022-09-26T13:20:16.072Z,8.88
2022-09-26T13:22:52.550Z,8.68
2022-09-26T13:25:26.099Z,7.45
2022-09-26T13:28:05.009Z,6.27
2022-09-26T13:30:36.645Z,7.60
2022-09-26T13:33:28.323Z,8.07
2022-09-26T13:35:59.853Z,10.43
2022-09-26T13:38:45.958Z,9.40
2022-09-26T13:41:13.281Z,7.40
2022-09-26T13:43:43.581Z,6.45
2022-09-26T13:46:31.878Z,7.70
2022-09-26T13:49:00.911Z,6.88
2022-09-26T13:51:54.612Z,7.13
2022-09-26T13:54:37.067Z,7.77
2022-09-26T13:57:31.752Z,8.70
2022-09-26T13:59:58.939Z,7.18
2022-09-26T14:02:30.276Z,6.68
2022-09-26T14:05:03.047Z,6.40
2022-09-26T14:08:00.685Z,6.30
2022-09-26T14:10:29.209Z,6.72
2022-09-26T14:13:08.454Z,8.05
2022-09-26T14:15:50.482Z,7.25
2022-09-26T14:18:45.025Z,6.30
2022-09-26T14:21:12.786Z,6.83
2022-09-26T14:23:51.383Z,6.22
2022-09-26T14:26:18.571Z,5.93
2022-09-26T14:28:54.398Z,6.03
2022-09-26T14:31:24.432Z,6.72
2022-09-26T14:34:16.933Z,6.70
2022-09-26T14:36:45.783Z,6.20
2022-09-26T14:39:39.156Z,6.20
2022-09-26T14:42:19.104Z,6.47
2022-09-26T14:44:52.978Z,7.22
2022-09-26T14:47:20.490Z,10.17
2022-09-26T14:50:06.364Z,7.90
2022-09-26T14:52:34.374Z,12.48
2022-09-26T14:55:06.135Z,7.88
2022-09-26T14:57:35.105Z,7.53
2022-09-26T15:00:02.768Z,9.73
2022-09-26T15:02:38.614Z,9.82
2022-09-26T15:05:08.695Z,8.32
2022-09-26T15:07:51.839Z,8.98
2022-09-26T15:10:41.184Z,11.75
2022-09-26T15:13:08.409Z,12.30
2022-09-26T15:15:45.653Z,10.82
2022-09-26T15:18:27.835Z,13.35
2022-09-26T15:21:33.098Z,9.00
2022-09-26T15:24:03.310Z,11.07
2022-09-26T15:26:37.439Z,10.70
2022-09-26T15:29:07.045Z,9.57
2022-09-26T15:31:36.899Z,12.18
2022-09-26T15:34:12.736Z,11.27
2022-09-26T15:36:42.174Z,8.73
2022-09-26T15:39:32.221Z,9.67
2022-09-26T15:42:31.778Z,10.77
2022-09-26T15:45:00.725Z,12.80
2022-09-26T15:47:41.335Z,12.23
2022-09-26T15:50:15.429Z,12.52
2022-09-26T15:53:11.417Z,9.67
2022-09-26T15:55:49.321Z,11.77
2022-09-26T15:58:21.426Z,11.82
2022-09-26T16:00:52.234Z,12.13
2022-09-26T16:03:37.683Z,11.85
2022-09-26T16:06:33.683Z,11.20
2022-09-26T16:09:11.355Z,15.98
2022-09-26T16:11:46.350Z,12.55
2022-09-26T16:14:26.736Z,12.77
2022-09-26T16:17:09.770Z,13.13
2022-09-26T16:19:45.011Z,9.73
2022-09-26T16:22:26.885Z,11.27
2022-09-26T16:24:54.221Z,11.57
2022-09-26T16:27:26.312Z,10.18
2022-09-26T16:29:53.496Z,10.50
2022-09-26T16:32:22.019Z,12.47
2022-09-26T16:34:49.588Z,8.07
2022-09-26T16:37:21.745Z,12.95
2022-09-26T16:39:57.133Z,12.18
2022-09-26T16:42:27.091Z,8.88
2022-09-26T16:44:55.440Z,13.33
2022-09-26T16:47:44.377Z,14.73
2022-09-26T16:50:31.311Z,10.57
2022-09-26T16:52:58.524Z,12.73
2022-09-26T16:55:26.297Z,14.27
2022-09-26T16:58:01.804Z,17.80
2022-09-26T17:00:52.837Z,22.13
2022-09-26T17:03:23.082Z,14.70
2022-09-26T17:05:51.994Z,16.30
2022-09-26T17:08:19.557Z,14.90
2022-09-26T17:10:46.963Z,16.50
2022-09-26T17:13:22.778Z,18.55
2022-09-26T17:15:53.160Z,12.13
2022-09-26T17:18:23.745Z,18.38
2022-09-26T17:20:51.110Z,22.50
2022-09-26T17:23:38.776Z,12.80
2022-09-26T17:26:06.883Z,11.63
2022-09-26T17:28:42.515Z,11.15
2022-09-26T17:31:16.568Z,20.33
2022-09-26T17:33:44.677Z,18.50
2022-09-26T17:36:27.234Z,18.00
2022-09-26T17:38:55.548Z,17.73
2022-09-26T17:41:23.098Z,15.40
2022-09-26T17:43:59.109Z,23.92
2022-09-26T17:46:26.260Z,16.85
2022-09-26T17:48:54.671Z,19.53
2022-09-26T17:51:22.713Z,22.05
2022-09-26T17:53:52.266Z,19.52
2022-09-26T17:56:20.257Z,22.70
2022-09-26T17:58:48.285Z,39.22
2022-09-26T18:01:25.189Z,26.73
2022-09-26T18:03:57.268Z,16.05
2022-09-26T18:06:27.820Z,17.38
2022-09-26T18:08:59.621Z,17.08
2022-09-26T18:11:27.226Z,12.88
2022-09-26T18:13:55.473Z,25.87
2022-09-26T18:16:23.336Z,18.40
2022-09-26T18:18:50.943Z,20.23
2022-09-26T18:21:19.497Z,9.63
2022-09-26T18:23:57.063Z,15.63
2022-09-26T18:26:33.842Z,14.37
2022-09-26T18:29:07.755Z,16.83
2022-09-26T18:31:38.535Z,18.15
2022-09-26T18:34:11.423Z,18.52
2022-09-26T18:36:38.633Z,18.58
2022-09-26T18:39:05.838Z,17.83
2022-09-26T18:41:33.100Z,15.63
2022-09-26T18:44:02.735Z,14.38
2022-09-26T18:46:30.552Z,12.65
2022-09-26T18:48:59.117Z,12.02
2022-09-26T18:51:27.158Z,12.10
2022-09-26T18:53:54.701Z,11.15
2022-09-26T18:56:39.863Z,10.38
2022-09-26T18:59:10.306Z,14.80
2022-09-26T19:01:40.163Z,17.02
2022-09-26T19:04:13.353Z,16.47
2022-09-26T19:06:42.551Z,22.50
2022-09-26T19:09:15.361Z,19.10
2022-09-26T19:11:42.892Z,19.38
2022-09-26T19:14:21.066Z,17.55
2022-09-26T19:16:49.032Z,11.13
2022-09-26T19:19:16.740Z,13.82
2022-09-26T19:21:48.235Z,9.43
2022-09-26T19:24:31.651Z,13.57
2022-09-26T19:27:06.678Z,12.38
2022-09-26T19:29:36.736Z,13.37
2022-09-26T19:32:04.363Z,11.18
2022-09-26T19:34:33.031Z,10.20
2022-09-26T19:37:02.976Z,9.43
2022-09-26T19:39:30.310Z,10.20
2022-09-26T19:41:57.628Z,6.90
2022-09-26T19:44:24.871Z,11.02
2022-09-26T19:46:52.386Z,18.48
2022-09-26T19:49:19.826Z,13.00
2022-09-26T19:51:47.239Z,8.93
2022-09-26T19:54:18.005Z,10.10
2022-09-26T19:56:46.548Z,6.25
2022-09-26T19:59:17.372Z,7.05
2022-09-26T20:01:46.535Z,9.23
2022-09-26T20:04:15.936Z,13.10
2022-09-26T20:06:43.801Z,10.23
2022-09-26T20:09:16.039Z,8.65
2022-09-26T20:11:43.440Z,9.88
2022-09-26T20:14:25.859Z,7.22
2022-09-26T20:16:55.910Z,12.18
2022-09-26T20:19:38.481Z,8.70
2022-09-26T20:22:07.833Z,7.47
2022-09-26T20:24:38.010Z,12.30
2022-09-26T20:27:07.510Z,13.93
2022-09-26T20:29:55.172Z,9.82
2022-09-26T20:32:22.474Z,9.60
2022-09-26T20:34:49.720Z,12.25
2022-09-26T20:37:18.039Z,10.82
2022-09-26T20:39:46.888Z,12.50
2022-09-26T20:42:17.690Z,13.23
2022-09-26T20:44:47.591Z,13.40
2022-09-26T20:47:19.609Z,11.32
2022-09-26T20:50:04.837Z,14.98
2022-09-26T20:52:31.800Z,8.07
2022-09-26T20:55:00.355Z,8.85
2022-09-26T20:57:27.305Z,6.63
2022-09-26T20:59:54.489Z,10.38
2022-09-26T21:02:21.968Z,8.00
2022-09-26T21:04:49.483Z,10.32
2022-09-26T21:07:16.802Z,8.20
2022-09-26T21:09:44.947Z,12.27
2022-09-26T21:12:16.446Z,8.05
2022-09-26T21:14:43.851Z,7.38
2022-09-26T21:17:40.432Z,4.88
2022-09-26T21:20:15.758Z,6.75
2022-09-26T21:23:05.567Z,7.40
2022-09-26T21:25:33.020Z,8.43
2022-09-26T21:28:02.959Z,8.63
2022-09-26T21:30:30.373Z,8.15
2022-09-26T21:32:58.786Z,9.00
2022-09-26T21:35:29.556Z,12.00
2022-09-26T21:37:58.880Z,8.52
2022-09-26T21:40:28.564Z,10.00
2022-09-26T21:43:03.629Z,16.02
2022-09-26T21:45:30.818Z,7.65
2022-09-26T21:47:58.407Z,8.73
2022-09-26T21:50:27.977Z,11.30
2022-09-26T21:53:07.471Z,16.25
2022-09-26T21:55:38.836Z,8.43
2022-09-26T21:58:14.167Z,11.48
2022-09-26T22:00:41.752Z,8.90
2022-09-26T22:03:08.987Z,8.93
2022-09-26T22:05:36.229Z,9.60
2022-09-26T22:08:03.540Z,13.40
2022-09-26T22:10:31.298Z,8.70
2022-09-26T22:12:58.878Z,8.40
2022-09-26T22:15:26.293Z,11.13
2022-09-26T22:17:54.397Z,9.73
2022-09-26T22:20:22.324Z,5.93
2022-09-26T22:22:49.585Z,6.43
2022-09-26T22:25:17.118Z,5.27
2022-09-26T22:27:44.671Z,8.25
2022-09-26T22:30:12.264Z,5.95
2022-09-26T22:32:39.995Z,8.88
2022-09-26T22:35:07.097Z,9.38
2022-09-26T22:37:34.497Z,6.73
2022-09-26T22:40:01.883Z,7.88
2022-09-26T22:42:28.684Z,6.82
2022-09-26T22:44:55.832Z,8.27
2022-09-26T22:47:23.180Z,3.55
2022-09-26T22:49:50.571Z,7.40
2022-09-26T22:52:17.943Z,7.95
2022-09-26T22:54:45.345Z,9.20
2022-09-26T22:57:12.670Z,6.40
2022-09-26T22:59:40.082Z,8.35
2022-09-26T23:02:07.535Z,9.63
2022-09-26T23:04:47.024Z,3.65
2022-09-26T23:07:16.330Z,6.65
2022-09-26T23:09:43.669Z,10.95
2022-09-26T23:12:11.250Z,7.75
2022-09-26T23:14:38.247Z,9.70
2022-09-26T23:17:05.775Z,5.68
2022-09-26T23:19:33.526Z,8.02
2022-09-26T23:22:00.793Z,10.07
2022-09-26T23:24:28.002Z,6.65
2022-09-26T23:26:57.449Z,3.57
2022-09-26T23:29:25.004Z,4.90
2022-09-26T23:31:52.776Z,6.45
2022-09-26T23:34:19.993Z,9.45
2022-09-26T23:36:47.183Z,5.55
2022-09-26T23:39:14.480Z,4.17
2022-09-26T23:41:41.883Z,9.40
2022-09-26T23:44:09.299Z,7.57
2022-09-26T23:46:36.678Z,8.23
2022-09-26T23:49:04.053Z,2.33
2022-09-26T23:51:30.859Z,6.87
2022-09-26T23:53:58.245Z,8.38
2022-09-26T23:56:25.660Z,4.55
2022-09-26T23:58:52.826Z,7.05
